Time;durP1;ratioP1;P1;durP2;ratioP2;P2;SDS_P1;SDS_P2;PMS_P1;PMS_P2;Temp;Humidity;BMP_temperature;BMP_pressure;BME280_temperature;BME280_humidity;BME280_pressure;Samples;Min_cycle;Max_cycle;Signal;HPM_P1;HPM_P2
2024/03/02 00:00:13;;;;;;;1.63;1.40;;;;;;;;;;5092252;28;20036;-79
2024/03/02 00:02:46;;;;;;;1.75;1.55;;;;;;;;;;5092193;28;20017;-78
2024/03/02 00:05:13;;;;;;;1.60;1.50;;;;;;;;;;5092843;28;20016;-80
2024/03/02 00:07:42;;;;;;;1.40;1.30;;;;;;;;;;5082420;28;20024;-77
2024/03/02 00:10:13;;;;;;;2.65;1.90;;;;;;;;;;5090586;28;20024;-79
2024/03/02 00:12:40;;;;;;;1.35;1.15;;;;;;;;;;5080730;28;20025;-80
2024/03/02 00:15:25;;;;;;;1.60;1.50;;;;;;;;;;5079860;28;20021;-79
2024/03/02 00:17:54;;;;;;;1.20;1.10;;;;;;;;;;5061111;28;20401;-79
2024/03/02 00:20:22;;;;;;;1.35;1.30;;;;;;;;;;5079703;28;20017;-79
2024/03/02 00:22:48;;;;;;;1.60;1.50;;;;;;;;;;5068556;28;20044;-80
2024/03/02 00:25:15;;;;;;;1.50;1.40;;;;;;;;;;5077201;28;20021;-78
2024/03/02 00:27:41;;;;;;;1.90;1.63;;;;;;;;;;5077131;28;20024;-79
2024/03/02 00:30:26;;;;;;;1.52;1.33;;;;;;;;;;5077568;28;20372;-79
2024/03/02 00:32:53;;;;;;;1.88;1.50;;;;;;;;;;5066490;28;20025;-79
2024/03/02 00:35:20;;;;;;;2.10;1.90;;;;;;;;;;5067624;28;20058;-78
2024/03/02 00:37:46;;;;;;;3.15;2.03;;;;;;;;;;5079985;28;20032;-78
2024/03/02 00:40:14;;;;;;;1.77;1.67;;;;;;;;;;5067151;28;20036;-79
2024/03/02 00:42:40;;;;;;;2.15;1.95;;;;;;;;;;5075585;28;20012;-79
2024/03/02 00:45:08;;;;;;;1.60;1.50;;;;;;;;;;5093356;28;20088;-79
2024/03/02 00:47:39;;;;;;;2.08;1.85;;;;;;;;;;5090635;28;20040;-79
2024/03/02 00:50:06;;;;;;;2.60;2.40;;;;;;;;;;5087315;28;20471;-79
2024/03/02 00:52:33;;;;;;;2.85;1.70;;;;;;;;;;5081734;28;20044;-79
2024/03/02 00:54:59;;;;;;;2.83;2.45;;;;;;;;;;5071964;28;20020;-77
2024/03/02 00:57:26;;;;;;;3.28;2.42;;;;;;;;;;5082935;28;20383;-78
2024/03/02 00:59:52;;;;;;;3.10;2.53;;;;;;;;;;5082196;28;20021;-78
2024/03/02 01:02:20;;;;;;;3.40;2.80;;;;;;;;;;5088055;28;20050;-79
2024/03/02 01:04:46;;;;;;;2.65;2.33;;;;;;;;;;5071123;28;20059;-78
2024/03/02 01:07:12;;;;;;;3.88;3.47;;;;;;;;;;5084798;28;20106;-77
2024/03/02 01:09:38;;;;;;;4.25;3.30;;;;;;;;;;5071400;28;20070;-78
2024/03/02 01:12:05;;;;;;;4.43;3.55;;;;;;;;;;5082127;28;20024;-77
2024/03/02 01:14:31;;;;;;;4.25;3.30;;;;;;;;;;5069435;28;20065;-77
2024/03/02 01:16:58;;;;;;;4.03;3.05;;;;;;;;;;5083654;28;20032;-78
2024/03/02 01:19:24;;;;;;;3.42;2.80;;;;;;;;;;5065341;28;20441;-77
2024/03/02 01:21:50;;;;;;;3.58;2.70;;;;;;;;;;5070471;28;20028;-77
2024/03/02 01:24:16;;;;;;;2.90;2.30;;;;;;;;;;5092457;28;20012;-77
2024/03/02 01:26:42;;;;;;;2.47;2.08;;;;;;;;;;5090569;28;20040;-79
2024/03/02 01:29:09;;;;;;;2.15;1.95;;;;;;;;;;5085176;28;20020;-77
2024/03/02 01:31:35;;;;;;;2.70;2.40;;;;;;;;;;5086846;28;20021;-79
2024/03/02 01:34:01;;;;;;;1.70;1.60;;;;;;;;;;5065963;28;20483;-77
2024/03/02 01:36:27;;;;;;;1.85;1.73;;;;;;;;;;5082696;28;20021;-78
2024/03/02 01:38:53;;;;;;;1.58;1.48;;;;;;;;;;5082829;28;20062;-77
2024/03/02 01:41:19;;;;;;;1.73;1.63;;;;;;;;;;5085788;28;20020;-79
2024/03/02 01:43:45;;;;;;;2.13;1.83;;;;;;;;;;5086360;28;20033;-78
2024/03/02 01:46:11;;;;;;;2.45;2.25;;;;;;;;;;5089454;28;20028;-78
2024/03/02 01:48:37;;;;;;;2.55;2.35;;;;;;;;;;5090414;28;20013;-78
2024/03/02 01:51:06;;;;;;;2.50;2.30;;;;;;;;;;5088360;28;20091;-78
2024/03/02 01:53:32;;;;;;;2.33;2.08;;;;;;;;;;5087497;28;20020;-78
2024/03/02 01:55:58;;;;;;;2.20;1.85;;;;;;;;;;5087164;28;20497;-78
2024/03/02 01:58:24;;;;;;;2.38;2.17;;;;;;;;;;5084559;28;20031;-79
2024/03/02 02:00:50;;;;;;;2.40;1.85;;;;;;;;;;5077082;28;20040;-77
2024/03/02 02:03:17;;;;;;;2.40;2.05;;;;;;;;;;5082815;28;20375;-79
2024/03/02 02:05:43;;;;;;;1.65;1.55;;;;;;;;;;5080163;28;20072;-79
2024/03/02 02:08:09;;;;;;;2.22;2.00;;;;;;;;;;5063440;28;20415;-78
2024/03/02 02:10:35;;;;;;;1.98;1.77;;;;;;;;;;5078841;28;20035;-79
2024/03/02 02:13:02;;;;;;;1.52;1.42;;;;;;;;;;5086823;28;20497;-79
2024/03/02 02:15:29;;;;;;;1.85;1.73;;;;;;;;;;5090429;28;20047;-79
2024/03/02 02:17:56;;;;;;;2.10;1.90;;;;;;;;;;5093718;28;20043;-79
2024/03/02 02:20:23;;;;;;;2.58;2.38;;;;;;;;;;5070418;28;20027;-78
2024/03/02 02:22:58;;;;;;;2.50;2.00;;;;;;;;;;5092242;28;20047;-78
2024/03/02 02:25:25;;;;;;;2.67;2.47;;;;;;;;;;5086012;28;20012;-78
2024/03/02 02:27:51;;;;;;;3.17;2.88;;;;;;;;;;5091459;28;20489;-79
2024/03/02 02:30:24;;;;;;;3.28;2.58;;;;;;;;;;5072177;28;20033;-79
2024/03/02 02:32:50;;;;;;;2.53;2.33;;;;;;;;;;5084666;28;20020;-77
2024/03/02 02:35:17;;;;;;;3.58;2.88;;;;;;;;;;5092819;28;20533;-79
2024/03/02 02:37:43;;;;;;;3.40;2.90;;;;;;;;;;5089940;28;20052;-79
2024/03/02 02:40:10;;;;;;;4.43;3.67;;;;;;;;;;5090542;28;20147;-79
2024/03/02 02:42:36;;;;;;;4.45;3.45;;;;;;;;;;5091101;28;20026;-79
2024/03/02 02:45:02;;;;;;;5.60;3.85;;;;;;;;;;5088752;28;20016;-78
2024/03/02 02:47:29;;;;;;;4.95;3.95;;;;;;;;;;5073078;28;20043;-79
2024/03/02 02:49:55;;;;;;;3.97;3.53;;;;;;;;;;5089333;28;20021;-77
2024/03/02 02:52:22;;;;;;;4.18;3.50;;;;;;;;;;5088218;28;20020;-78
2024/03/02 02:54:48;;;;;;;4.07;3.40;;;;;;;;;;5089416;28;20031;-77
2024/03/02 02:57:14;;;;;;;3.67;3.30;;;;;;;;;;5090456;28;20028;-78
2024/03/02 02:59:40;;;;;;;4.18;3.08;;;;;;;;;;5068299;28;20039;-78
2024/03/02 03:02:06;;;;;;;2.85;2.55;;;;;;;;;;5068921;28;20054;-79
2024/03/02 03:04:32;;;;;;;2.25;2.05;;;;;;;;;;5069522;28;20020;-81
2024/03/02 03:06:58;;;;;;;3.08;2.45;;;;;;;;;;5078794;28;20076;-77
2024/03/02 03:09:25;;;;;;;2.15;1.95;;;;;;;;;;5106641;28;20050;-77
2024/03/02 03:11:51;;;;;;;2.22;2.03;;;;;;;;;;5089241;28;20017;-78
2024/03/02 03:14:17;;;;;;;1.85;1.65;;;;;;;;;;5087514;28;20028;-77
2024/03/02 03:16:43;;;;;;;2.05;1.88;;;;;;;;;;5103201;28;20021;-78
2024/03/02 03:19:09;;;;;;;1.65;1.55;;;;;;;;;;5091086;28;20142;-78
2024/03/02 03:21:35;;;;;;;1.52;1.42;;;;;;;;;;5103303;28;20020;-79
2024/03/02 03:24:01;;;;;;;1.67;1.50;;;;;;;;;;5087568;28;20024;-77
2024/03/02 03:26:27;;;;;;;2.28;1.92;;;;;;;;;;5085799;28;20467;-80
2024/03/02 03:28:54;;;;;;;1.88;1.77;;;;;;;;;;5086191;28;20119;-78
2024/03/02 03:31:20;;;;;;;1.58;1.48;;;;;;;;;;5087297;28;20032;-79
2024/03/02 03:33:46;;;;;;;1.83;1.63;;;;;;;;;;5085475;28;20047;-78
2024/03/02 03:36:12;;;;;;;2.22;1.63;;;;;;;;;;5063168;28;20068;-78
2024/03/02 03:38:38;;;;;;;2.30;2.00;;;;;;;;;;5084828;28;20020;-79
2024/03/02 03:41:04;;;;;;;2.70;1.90;;;;;;;;;;5087272;28;20020;-78
2024/03/02 03:43:30;;;;;;;1.70;1.60;;;;;;;;;;5087472;28;20020;-78
2024/03/02 03:45:56;;;;;;;1.70;1.60;;;;;;;;;;5068308;28;20494;-78
2024/03/02 03:48:22;;;;;;;1.40;1.30;;;;;;;;;;5092421;28;20074;-77
2024/03/02 03:50:49;;;;;;;1.40;1.30;;;;;;;;;;5105447;28;20108;-77
2024/03/02 03:53:15;;;;;;;0.90;0.90;;;;;;;;;;5085242;28;20096;-77
2024/03/02 03:55:41;;;;;;;2.28;1.60;;;;;;;;;;5093936;28;20017;-78
2024/03/02 03:58:07;;;;;;;1.90;1.30;;;;;;;;;;5102328;28;20016;-78
2024/03/02 04:00:33;;;;;;;1.35;1.25;;;;;;;;;;5098325;28;20028;-78
2024/03/02 04:02:59;;;;;;;1.88;1.55;;;;;;;;;;5096751;28;20024;-79
2024/03/02 04:05:25;;;;;;;1.50;1.40;;;;;;;;;;5086756;28;20103;-79
2024/03/02 04:07:51;;;;;;;1.95;1.75;;;;;;;;;;5074412;28;20013;-78
2024/03/02 04:10:18;;;;;;;2.03;1.83;;;;;;;;;;5092999;28;20016;-79
2024/03/02 04:12:44;;;;;;;1.60;1.50;;;;;;;;;;5093344;28;20029;-78
2024/03/02 04:15:10;;;;;;;2.00;1.83;;;;;;;;;;5085709;28;20025;-78
2024/03/02 04:17:36;;;;;;;2.33;2.13;;;;;;;;;;5083725;28;20056;-79
2024/03/02 04:20:05;;;;;;;1.67;1.58;;;;;;;;;;5065947;28;20033;-79
2024/03/02 04:22:31;;;;;;;1.77;1.63;;;;;;;;;;5088096;28;20042;-78
2024/03/02 04:24:57;;;;;;;2.60;2.22;;;;;;;;;;5088583;28;20024;-78
2024/03/02 04:27:23;;;;;;;3.15;2.50;;;;;;;;;;5089454;28;20019;-78
2024/03/02 04:29:49;;;;;;;2.70;2.50;;;;;;;;;;5072697;28;20035;-78
2024/03/02 04:32:15;;;;;;;3.67;2.85;;;;;;;;;;5091037;28;20036;-79
2024/03/02 04:34:42;;;;;;;3.33;2.70;;;;;;;;;;5090170;28;20025;-79
2024/03/02 04:37:08;;;;;;;3.50;3.08;;;;;;;;;;5069412;28;20033;-80
2024/03/02 04:39:35;;;;;;;3.75;2.78;;;;;;;;;;5085613;28;20070;-78
2024/03/02 04:42:02;;;;;;;2.85;2.58;;;;;;;;;;5089592;28;20096;-79
2024/03/02 04:44:28;;;;;;;3.03;2.72;;;;;;;;;;5066277;28;20016;-78
2024/03/02 04:46:54;;;;;;;3.85;2.92;;;;;;;;;;5082891;28;20074;-78
2024/03/02 04:49:21;;;;;;;2.85;2.65;;;;;;;;;;5091068;28;20080;-78
2024/03/02 04:51:47;;;;;;;2.63;2.42;;;;;;;;;;5085776;28;20016;-77
2024/03/02 04:54:14;;;;;;;2.25;2.05;;;;;;;;;;5077872;28;20100;-78
2024/03/02 04:56:44;;;;;;;2.50;2.30;;;;;;;;;;5081737;28;20021;-78
2024/03/02 04:59:10;;;;;;;2.15;1.95;;;;;;;;;;5063644;28;20131;-79
2024/03/02 05:01:36;;;;;;;1.80;1.60;;;;;;;;;;5079371;28;20108;-78
2024/03/02 05:04:03;;;;;;;2.15;1.80;;;;;;;;;;5060147;28;20044;-77
2024/03/02 05:06:29;;;;;;;1.67;1.58;;;;;;;;;;5060991;28;20016;-79
2024/03/02 05:08:56;;;;;;;1.95;1.85;;;;;;;;;;5057043;28;20104;-78
2024/03/02 05:14:07;;;;;;;1.65;1.55;;;;;;;;;;5076218;28;20083;-78
2024/03/02 05:16:41;;;;;;;1.77;1.67;;;;;;;;;;5081746;28;20020;-78
2024/03/02 05:19:07;;;;;;;1.77;1.67;;;;;;;;;;5077811;28;20016;-78
2024/03/02 05:21:34;;;;;;;2.35;2.08;;;;;;;;;;5058556;28;20479;-77
2024/03/02 05:24:00;;;;;;;2.05;1.85;;;;;;;;;;5076565;28;20032;-78
2024/03/02 05:26:26;;;;;;;2.58;2.20;;;;;;;;;;5060967;28;20028;-79
2024/03/02 05:28:53;;;;;;;2.53;2.22;;;;;;;;;;5070269;28;20088;-78
2024/03/02 05:31:19;;;;;;;3.28;2.28;;;;;;;;;;5095729;28;20012;-78
2024/03/02 05:33:45;;;;;;;2.20;1.98;;;;;;;;;;5090647;28;20047;-79
2024/03/02 05:36:11;;;;;;;1.98;1.77;;;;;;;;;;5090247;28;20387;-78
2024/03/02 05:38:37;;;;;;;2.05;1.80;;;;;;;;;;5082422;28;20024;-77
2024/03/02 05:41:04;;;;;;;1.88;1.73;;;;;;;;;;5078505;28;20033;-76
2024/03/02 05:43:30;;;;;;;1.65;1.40;;;;;;;;;;5074963;28;20040;-75
2024/03/02 05:45:56;;;;;;;1.30;1.20;;;;;;;;;;5062723;28;20025;-76
2024/03/02 05:48:23;;;;;;;1.77;1.58;;;;;;;;;;5070631;28;20110;-76
2024/03/02 05:50:49;;;;;;;1.50;1.40;;;;;;;;;;5072850;28;20028;-77
2024/03/02 05:53:15;;;;;;;1.52;1.30;;;;;;;;;;5082500;28;20385;-76
2024/03/02 05:55:41;;;;;;;1.45;1.35;;;;;;;;;;5073967;28;20036;-77
2024/03/02 06:00:49;;;;;;;1.40;1.30;;;;;;;;;;5073871;28;20451;-77
2024/03/02 06:03:15;;;;;;;1.50;1.33;;;;;;;;;;5062840;28;20081;-75
2024/03/02 06:05:41;;;;;;;1.08;1.08;;;;;;;;;;5056969;28;20036;-77
2024/03/02 06:08:07;;;;;;;1.17;1.17;;;;;;;;;;5071785;28;20024;-76
2024/03/02 06:10:33;;;;;;;1.30;1.20;;;;;;;;;;5072769;28;20035;-76
2024/03/02 06:13:00;;;;;;;1.80;1.50;;;;;;;;;;5073817;28;20017;-75
2024/03/02 06:15:26;;;;;;;1.70;1.60;;;;;;;;;;5058414;28;20024;-75
2024/03/02 06:17:52;;;;;;;1.70;1.60;;;;;;;;;;5062964;28;20108;-75
2024/03/02 06:20:18;;;;;;;2.75;2.15;;;;;;;;;;5071680;28;20024;-76
2024/03/02 06:22:44;;;;;;;2.38;2.17;;;;;;;;;;5072684;28;20051;-76
2024/03/02 06:25:10;;;;;;;2.80;2.25;;;;;;;;;;5072305;28;20023;-76
2024/03/02 06:27:36;;;;;;;2.83;2.30;;;;;;;;;;5072351;28;20114;-75
2024/03/02 06:30:03;;;;;;;3.08;2.42;;;;;;;;;;5072390;28;20021;-76
2024/03/02 06:32:30;;;;;;;2.25;2.05;;;;;;;;;;5072708;28;20020;-77
2024/03/02 06:34:56;;;;;;;2.25;2.05;;;;;;;;;;5073269;28;20031;-76
2024/03/02 06:37:22;;;;;;;2.03;1.92;;;;;;;;;;5053914;28;20024;-76
2024/03/02 06:39:48;;;;;;;2.60;2.20;;;;;;;;;;5071725;28;20048;-77
2024/03/02 06:42:14;;;;;;;2.42;2.08;;;;;;;;;;5073390;28;20020;-77
2024/03/02 06:44:40;;;;;;;2.30;2.10;;;;;;;;;;5073500;28;20033;-77
2024/03/02 06:47:06;;;;;;;2.20;1.92;;;;;;;;;;5072259;28;20020;-76
2024/03/02 06:49:32;;;;;;;2.35;1.98;;;;;;;;;;5054853;28;20021;-77
2024/03/02 06:51:58;;;;;;;1.95;1.80;;;;;;;;;;5062896;28;20073;-77
2024/03/02 06:54:24;;;;;;;1.77;1.67;;;;;;;;;;5071885;28;20051;-76
2024/03/02 06:56:51;;;;;;;2.65;1.80;;;;;;;;;;5058308;28;20024;-77
2024/03/02 06:59:17;;;;;;;1.77;1.67;;;;;;;;;;5072302;28;20089;-76
2024/03/02 07:01:43;;;;;;;1.60;1.50;;;;;;;;;;5072966;28;20024;-76
2024/03/02 07:04:09;;;;;;;1.90;1.70;;;;;;;;;;5058126;28;20040;-76
2024/03/02 07:06:36;;;;;;;1.60;1.50;;;;;;;;;;5068957;28;20069;-76
2024/03/02 07:09:02;;;;;;;1.73;1.63;;;;;;;;;;5065178;28;20021;-76
2024/03/02 07:11:28;;;;;;;1.67;1.58;;;;;;;;;;5077903;28;20025;-76
2024/03/02 07:13:54;;;;;;;1.50;1.40;;;;;;;;;;5083063;28;20028;-77
2024/03/02 07:16:32;;;;;;;1.40;1.30;;;;;;;;;;5078828;28;20490;-76
2024/03/02 07:18:59;;;;;;;1.00;1.00;;;;;;;;;;5077935;28;20074;-76
2024/03/02 07:21:25;;;;;;;1.70;1.50;;;;;;;;;;5078215;28;20040;-76
2024/03/02 07:23:51;;;;;;;1.98;1.83;;;;;;;;;;5078792;28;20021;-76
2024/03/02 07:26:20;;;;;;;2.10;1.90;;;;;;;;;;5082614;28;20029;-77
2024/03/02 07:28:50;;;;;;;2.83;2.03;;;;;;;;;;5080887;28;20024;-75
2024/03/02 07:31:16;;;;;;;2.97;2.55;;;;;;;;;;5082772;28;20115;-76
2024/03/02 07:33:42;;;;;;;2.28;2.08;;;;;;;;;;5081413;28;20491;-77
2024/03/02 07:36:08;;;;;;;2.42;2.20;;;;;;;;;;5079234;28;20032;-76
2024/03/02 07:38:35;;;;;;;2.75;2.10;;;;;;;;;;5079062;28;20025;-75
2024/03/02 07:41:01;;;;;;;2.00;1.85;;;;;;;;;;5079189;28;20108;-75
2024/03/02 07:43:27;;;;;;;2.35;2.10;;;;;;;;;;5075809;28;20070;-76
2024/03/02 07:45:53;;;;;;;2.40;2.13;;;;;;;;;;5075947;28;20028;-76
2024/03/02 07:48:19;;;;;;;4.38;3.17;;;;;;;;;;5075172;28;20456;-76
2024/03/02 07:50:45;;;;;;;4.25;3.40;;;;;;;;;;5075719;28;20024;-76
2024/03/02 07:53:11;;;;;;;4.43;3.47;;;;;;;;;;5075408;28;20058;-76
2024/03/02 07:55:38;;;;;;;3.63;2.95;;;;;;;;;;5075737;28;20029;-76
2024/03/02 07:58:04;;;;;;;3.67;3.08;;;;;;;;;;5075956;28;20032;-77
2024/03/02 08:00:30;;;;;;;3.92;3.08;;;;;;;;;;5077375;28;20032;-77
2024/03/02 08:02:56;;;;;;;4.63;3.70;;;;;;;;;;5077920;28;20418;-77
2024/03/02 08:05:22;;;;;;;4.75;3.15;;;;;;;;;;5076609;28;20028;-77
2024/03/02 08:07:52;;;;;;;4.18;3.15;;;;;;;;;;5076665;28;20017;-76
2024/03/02 08:10:19;;;;;;;3.97;3.05;;;;;;;;;;5074628;28;20028;-76
2024/03/02 08:12:45;;;;;;;4.55;3.28;;;;;;;;;;5075097;28;20032;-75
2024/03/02 08:15:14;;;;;;;4.07;2.95;;;;;;;;;;5076551;28;20044;-77
2024/03/02 08:17:48;;;;;;;3.72;2.95;;;;;;;;;;5057893;28;20475;-76
2024/03/02 08:20:14;;;;;;;3.00;2.38;;;;;;;;;;5056773;28;20552;-76
2024/03/02 08:22:40;;;;;;;2.75;2.35;;;;;;;;;;5075732;28;20017;-78
2024/03/02 08:25:07;;;;;;;3.30;3.00;;;;;;;;;;5058003;28;20384;-77
2024/03/02 08:27:34;;;;;;;4.32;3.03;;;;;;;;;;5076122;28;20029;-76
2024/03/02 08:30:00;;;;;;;3.08;2.78;;;;;;;;;;5060649;28;20024;-75
2024/03/02 08:32:26;;;;;;;2.92;2.47;;;;;;;;;;5093528;28;20042;-76
2024/03/02 08:34:52;;;;;;;2.10;1.88;;;;;;;;;;5091252;28;20035;-75
2024/03/02 08:37:18;;;;;;;4.22;3.55;;;;;;;;;;5083495;28;20060;-76
2024/03/02 08:39:45;;;;;;;7.03;4.82;;;;;;;;;;5077595;28;20055;-76
2024/03/02 08:42:11;;;;;;;5.57;4.20;;;;;;;;;;5094551;28;20020;-76
2024/03/02 08:44:37;;;;;;;4.40;3.80;;;;;;;;;;5091393;28;20029;-76
2024/03/02 08:47:04;;;;;;;5.07;3.85;;;;;;;;;;5077006;28;20052;-77
2024/03/02 08:49:30;;;;;;;5.45;4.18;;;;;;;;;;5074651;28;20028;-76
2024/03/02 08:51:56;;;;;;;5.65;4.40;;;;;;;;;;5075293;28;20017;-76
2024/03/02 08:54:22;;;;;;;7.40;5.50;;;;;;;;;;5075273;28;20040;-76
2024/03/02 08:56:49;;;;;;;8.55;6.55;;;;;;;;;;5074577;28;20024;-76
2024/03/02 08:59:15;;;;;;;7.60;5.88;;;;;;;;;;5073082;28;20107;-76
2024/03/02 09:01:41;;;;;;;8.30;6.50;;;;;;;;;;5073905;28;20440;-76
2024/03/02 09:04:10;;;;;;;10.57;7.97;;;;;;;;;;5073230;28;20021;-75
2024/03/02 09:06:37;;;;;;;9.93;7.35;;;;;;;;;;5073862;28;20356;-77
2024/03/02 09:09:04;;;;;;;6.57;5.53;;;;;;;;;;5055428;28;20023;-77
2024/03/02 09:11:30;;;;;;;7.93;6.32;;;;;;;;;;5073386;28;20479;-76
2024/03/02 09:13:57;;;;;;;8.45;6.15;;;;;;;;;;5073580;28;20032;-77
2024/03/02 09:16:24;;;;;;;10.77;7.95;;;;;;;;;;5073713;28;20025;-76
2024/03/02 09:18:50;;;;;;;10.57;7.53;;;;;;;;;;5072628;28;20024;-75
2024/03/02 09:21:16;;;;;;;10.73;7.80;;;;;;;;;;5072772;28;20032;-77
2024/03/02 09:23:44;;;;;;;9.35;7.65;;;;;;;;;;5058170;28;20028;-77
2024/03/02 09:26:10;;;;;;;8.90;6.68;;;;;;;;;;5072754;28;20035;-75
2024/03/02 09:28:36;;;;;;;7.07;6.20;;;;;;;;;;5072980;28;20024;-77
2024/03/02 09:31:02;;;;;;;7.00;5.65;;;;;;;;;;5072882;28;20123;-77
2024/03/02 09:33:28;;;;;;;5.07;4.57;;;;;;;;;;5073107;28;20082;-76
2024/03/02 09:35:54;;;;;;;7.20;5.60;;;;;;;;;;5073011;28;20028;-76
2024/03/02 09:38:20;;;;;;;9.52;6.85;;;;;;;;;;5072869;28;20027;-77
2024/03/02 09:40:46;;;;;;;7.80;5.90;;;;;;;;;;5072988;28;20495;-76
2024/03/02 09:43:13;;;;;;;7.40;5.63;;;;;;;;;;5072713;28;20021;-76
2024/03/02 09:45:39;;;;;;;7.60;5.80;;;;;;;;;;5072479;28;20020;-76
2024/03/02 09:48:06;;;;;;;6.13;4.70;;;;;;;;;;5072446;28;20021;-76
2024/03/02 09:50:32;;;;;;;6.38;4.13;;;;;;;;;;5072930;28;20029;-77
2024/03/02 09:52:59;;;;;;;4.65;3.78;;;;;;;;;;5054935;28;20021;-77
2024/03/02 09:55:28;;;;;;;6.82;4.18;;;;;;;;;;5074306;28;20111;-77
2024/03/02 09:57:55;;;;;;;4.45;3.50;;;;;;;;;;5072744;28;20028;-76
2024/03/02 10:00:21;;;;;;;4.68;4.15;;;;;;;;;;5054460;28;20125;-76
2024/03/02 10:02:48;;;;;;;4.57;4.03;;;;;;;;;;5072855;28;20029;-79
2024/03/02 10:05:24;;;;;;;5.43;4.18;;;;;;;;;;5072153;28;20024;-77
2024/03/02 10:08:03;;;;;;;5.75;4.72;;;;;;;;;;5073354;28;20104;-77
2024/03/02 10:10:39;;;;;;;5.00;4.40;;;;;;;;;;5073602;28;20050;-76
2024/03/02 10:13:06;;;;;;;5.82;4.35;;;;;;;;;;5083977;28;20055;-77
2024/03/02 10:15:32;;;;;;;7.05;4.50;;;;;;;;;;5087180;28;20027;-77
2024/03/02 10:17:58;;;;;;;8.40;5.68;;;;;;;;;;5073663;28;20032;-77
2024/03/02 10:20:25;;;;;;;8.57;6.35;;;;;;;;;;5066088;28;20136;-76
2024/03/02 10:22:51;;;;;;;9.32;5.82;;;;;;;;;;5076689;28;20024;-77
2024/03/02 10:25:33;;;;;;;7.68;5.70;;;;;;;;;;5057366;28;20510;-77
2024/03/02 10:27:59;;;;;;;6.97;5.35;;;;;;;;;;5079281;28;20061;-76
2024/03/02 10:30:26;;;;;;;4.03;3.63;;;;;;;;;;5078882;28;20063;-77
2024/03/02 10:32:53;;;;;;;4.13;3.20;;;;;;;;;;5085234;28;20092;-76
2024/03/02 10:35:20;;;;;;;6.15;4.70;;;;;;;;;;5086621;28;20055;-76
2024/03/02 10:37:47;;;;;;;5.97;4.70;;;;;;;;;;5085360;28;20047;-76
2024/03/02 10:40:14;;;;;;;4.97;4.07;;;;;;;;;;5084818;28;20040;-76
2024/03/02 10:42:42;;;;;;;5.47;3.53;;;;;;;;;;5067062;28;20025;-76
2024/03/02 10:45:12;;;;;;;6.43;4.75;;;;;;;;;;5086923;28;20040;-77
2024/03/02 10:47:38;;;;;;;7.65;4.85;;;;;;;;;;5094408;28;20047;-76
2024/03/02 10:50:08;;;;;;;5.18;3.88;;;;;;;;;;5090723;28;20028;-78
2024/03/02 10:52:37;;;;;;;5.53;3.78;;;;;;;;;;5067955;28;20051;-77
2024/03/02 10:55:09;;;;;;;3.92;3.45;;;;;;;;;;5072464;28;20116;-79
2024/03/02 10:57:44;;;;;;;3.95;3.25;;;;;;;;;;5070911;28;20025;-78
2024/03/02 11:02:53;;;;;;;7.47;5.43;;;;;;;;;;5022610;28;20125;-78
2024/03/02 11:05:29;;;;;;;7.07;5.20;;;;;;;;;;5051131;28;20022;-78
2024/03/02 11:08:01;;;;;;;10.63;6.80;;;;;;;;;;5032885;28;20033;-78
2024/03/02 11:10:30;;;;;;;9.57;5.72;;;;;;;;;;5024082;28;20058;-80
2024/03/02 11:13:01;;;;;;;8.50;6.20;;;;;;;;;;5024483;28;20014;-79
2024/03/02 11:15:28;;;;;;;10.82;7.15;;;;;;;;;;5022169;28;20037;-78
2024/03/02 11:17:54;;;;;;;11.27;7.57;;;;;;;;;;5021259;28;20030;-80
2024/03/02 11:20:20;;;;;;;11.48;7.15;;;;;;;;;;5021271;28;20042;-79
2024/03/02 11:22:47;;;;;;;15.60;9.05;;;;;;;;;;5022368;28;20029;-80
2024/03/02 11:25:26;;;;;;;17.02;10.60;;;;;;;;;;5021223;28;20031;-79
2024/03/02 11:27:55;;;;;;;15.27;10.43;;;;;;;;;;5023035;28;20041;-80
2024/03/02 11:30:33;;;;;;;11.85;8.45;;;;;;;;;;5037944;28;20052;-79
2024/03/02 11:33:00;;;;;;;11.32;8.23;;;;;;;;;;5023014;28;20072;-79
2024/03/02 11:35:29;;;;;;;15.70;9.95;;;;;;;;;;5026431;28;20064;-79
2024/03/02 11:37:55;;;;;;;15.38;9.25;;;;;;;;;;5027439;28;20036;-78
2024/03/02 11:40:28;;;;;;;13.98;8.93;;;;;;;;;;5038814;28;20085;-79
2024/03/02 11:42:55;;;;;;;11.10;8.13;;;;;;;;;;5020650;28;20014;-79
2024/03/02 11:45:27;;;;;;;10.98;7.13;;;;;;;;;;5022931;28;20021;-78
2024/03/02 11:47:59;;;;;;;14.60;9.85;;;;;;;;;;5022332;28;20053;-78
2024/03/02 11:50:35;;;;;;;13.75;9.20;;;;;;;;;;5022684;28;20034;-78
2024/03/02 11:53:01;;;;;;;12.07;8.73;;;;;;;;;;5022569;28;20026;-78
2024/03/02 11:55:27;;;;;;;13.10;7.68;;;;;;;;;;5024925;28;20033;-77
2024/03/02 11:57:53;;;;;;;11.50;8.25;;;;;;;;;;5022537;28;20068;-80
2024/03/02 12:00:20;;;;;;;12.68;7.43;;;;;;;;;;5019538;28;20068;-80
2024/03/02 12:03:00;;;;;;;9.32;6.55;;;;;;;;;;5022209;28;20038;-79
2024/03/02 12:05:27;;;;;;;8.30;5.03;;;;;;;;;;5024306;28;20026;-80
2024/03/02 12:08:04;;;;;;;7.03;4.65;;;;;;;;;;5024613;28;20030;-81
2024/03/02 12:10:31;;;;;;;6.20;4.38;;;;;;;;;;5027451;28;20045;-79
2024/03/02 12:12:57;;;;;;;10.32;6.57;;;;;;;;;;5032109;28;20037;-79
2024/03/02 12:15:24;;;;;;;11.45;8.18;;;;;;;;;;5027518;28;20030;-80
2024/03/02 12:17:53;;;;;;;10.48;7.10;;;;;;;;;;5026411;28;20026;-78
2024/03/02 12:20:19;;;;;;;13.00;8.18;;;;;;;;;;5025366;28;20057;-79
2024/03/02 12:22:45;;;;;;;15.32;9.75;;;;;;;;;;5025712;28;20063;-79
2024/03/02 12:25:12;;;;;;;11.63;7.95;;;;;;;;;;5025532;28;20381;-79
2024/03/02 12:27:39;;;;;;;9.75;6.93;;;;;;;;;;5024313;28;20044;-78
2024/03/02 12:30:08;;;;;;;10.32;7.70;;;;;;;;;;5025133;28;20041;-80
2024/03/02 12:32:34;;;;;;;13.48;9.30;;;;;;;;;;5042060;28;20026;-78
2024/03/02 12:35:00;;;;;;;12.75;9.23;;;;;;;;;;5027017;28;20026;-79
2024/03/02 12:37:28;;;;;;;15.30;10.90;;;;;;;;;;5025847;28;20088;-78
2024/03/02 12:39:54;;;;;;;19.60;13.18;;;;;;;;;;5040719;28;20030;-78
2024/03/02 12:42:20;;;;;;;22.20;14.20;;;;;;;;;;5026336;28;20033;-79
2024/03/02 12:44:46;;;;;;;22.15;12.98;;;;;;;;;;5027280;28;20105;-78
2024/03/02 12:47:13;;;;;;;19.15;14.23;;;;;;;;;;5027767;28;20033;-78
2024/03/02 12:49:41;;;;;;;21.55;14.50;;;;;;;;;;5024235;28;20045;-79
2024/03/02 12:52:07;;;;;;;22.40;15.13;;;;;;;;;;5026756;28;20058;-78
2024/03/02 12:54:34;;;;;;;20.60;13.95;;;;;;;;;;5023708;28;20663;-80
2024/03/02 12:57:00;;;;;;;20.90;14.25;;;;;;;;;;5041078;28;20030;-80
2024/03/02 12:59:29;;;;;;;19.13;13.82;;;;;;;;;;5027614;28;20026;-79
2024/03/02 13:01:57;;;;;;;18.60;13.30;;;;;;;;;;5027909;28;20057;-79
2024/03/02 13:04:25;;;;;;;20.27;13.50;;;;;;;;;;5026302;28;20030;-78
2024/03/02 13:06:52;;;;;;;23.02;14.48;;;;;;;;;;5022000;28;20049;-78
2024/03/02 13:09:18;;;;;;;19.75;14.77;;;;;;;;;;5042003;28;20030;-77
2024/03/02 13:11:45;;;;;;;21.48;14.45;;;;;;;;;;5050767;28;20030;-77
2024/03/02 13:14:11;;;;;;;20.08;14.88;;;;;;;;;;5045827;28;20042;-77
2024/03/02 13:16:41;;;;;;;21.75;15.40;;;;;;;;;;5028108;28;20109;-78
2024/03/02 13:19:11;;;;;;;20.02;14.75;;;;;;;;;;5038289;28;20503;-78
2024/03/02 13:21:38;;;;;;;21.85;15.02;;;;;;;;;;5024850;28;20022;-79
2024/03/02 13:24:05;;;;;;;22.40;14.75;;;;;;;;;;5022154;28;20022;-79
2024/03/02 13:26:31;;;;;;;20.73;15.13;;;;;;;;;;5026109;28;20044;-79
2024/03/02 13:28:57;;;;;;;22.00;14.63;;;;;;;;;;5039117;28;20030;-80
2024/03/02 13:31:23;;;;;;;20.20;14.35;;;;;;;;;;5039776;28;20041;-78
2024/03/02 13:33:49;;;;;;;20.08;14.40;;;;;;;;;;5027366;28;20434;-79
2024/03/02 13:36:15;;;;;;;21.70;14.15;;;;;;;;;;5041281;28;20068;-79
2024/03/02 13:38:41;;;;;;;15.30;11.60;;;;;;;;;;5025306;28;20025;-80
2024/03/02 13:41:08;;;;;;;17.52;12.48;;;;;;;;;;5025893;28;20026;-79
2024/03/02 13:43:35;;;;;;;18.45;12.02;;;;;;;;;;5025455;28;20104;-79
2024/03/02 13:46:03;;;;;;;18.48;13.00;;;;;;;;;;5027227;28;20205;-80
2024/03/02 13:48:30;;;;;;;21.05;13.40;;;;;;;;;;5023209;28;20409;-79
2024/03/02 13:50:56;;;;;;;18.30;12.60;;;;;;;;;;5025490;28;20028;-80
2024/03/02 13:53:23;;;;;;;20.15;14.88;;;;;;;;;;5026310;28;20030;-80
2024/03/02 13:55:49;;;;;;;16.35;12.90;;;;;;;;;;5023531;28;20030;-79
2024/03/02 13:58:15;;;;;;;16.55;12.13;;;;;;;;;;5023141;28;20026;-79
2024/03/02 14:00:42;;;;;;;15.60;11.27;;;;;;;;;;5023265;28;20388;-79
2024/03/02 14:03:08;;;;;;;16.40;11.48;;;;;;;;;;5024640;28;20129;-80
2024/03/02 14:05:34;;;;;;;17.88;11.60;;;;;;;;;;5023162;28;20104;-79
2024/03/02 14:08:00;;;;;;;17.05;10.93;;;;;;;;;;5024581;28;20392;-78
2024/03/02 14:10:27;;;;;;;15.38;10.88;;;;;;;;;;5022807;28;20026;-79
2024/03/02 14:12:55;;;;;;;13.38;10.02;;;;;;;;;;5023999;28;20276;-79
2024/03/02 14:15:21;;;;;;;16.60;10.05;;;;;;;;;;5025078;28;20507;-79
2024/03/02 14:17:47;;;;;;;11.95;8.48;;;;;;;;;;5023785;28;20033;-80
2024/03/02 14:20:13;;;;;;;11.02;8.18;;;;;;;;;;5022047;28;20044;-79
2024/03/02 14:22:40;;;;;;;12.85;8.48;;;;;;;;;;5022316;28;20061;-80
2024/03/02 14:25:06;;;;;;;14.02;10.73;;;;;;;;;;5038562;28;20080;-78
2024/03/02 14:27:33;;;;;;;15.95;11.13;;;;;;;;;;5023038;28;20559;-78
2024/03/02 14:29:59;;;;;;;12.93;9.45;;;;;;;;;;5021953;28;20057;-80
2024/03/02 14:32:25;;;;;;;14.68;9.65;;;;;;;;;;5013327;28;20152;-78
2024/03/02 14:34:51;;;;;;;14.23;10.38;;;;;;;;;;5019673;28;20036;-78
2024/03/02 14:37:17;;;;;;;12.18;9.13;;;;;;;;;;5016663;28;20370;-80
2024/03/02 14:39:43;;;;;;;11.40;8.20;;;;;;;;;;5020940;28;20037;-80
2024/03/02 14:42:09;;;;;;;12.70;9.02;;;;;;;;;;5023748;28;20021;-79
2024/03/02 14:44:35;;;;;;;14.45;10.50;;;;;;;;;;5025662;28;20020;-79